Time;durP1;ratioP1;P1;durP2;ratioP2;P2;SDS_P1;SDS_P2;PMS_P1;PMS_P2;Temp;Humidity;BMP_temperature;BMP_pressure;BME280_temperature;BME280_humidity;BME280_pressure;Samples;Min_cycle;Max_cycle;Signal;HPM_P1;HPM_P2
2024/03/22 00:00:14;;;;;;;16.17;13.18;;;;;;;;;;524689;28;957;-68
2024/03/22 00:00:29;;;;;;;15.47;12.93;;;;;;;;;;524048;28;944;-68
2024/03/22 00:00:45;;;;;;;14.70;12.63;;;;;;;;;;525889;28;929;-68
2024/03/22 00:01:00;;;;;;;15.97;13.10;;;;;;;;;;525720;28;870;-68
2024/03/22 00:01:15;;;;;;;16.60;13.50;;;;;;;;;;525744;28;1102;-68
2024/03/22 00:01:30;;;;;;;15.60;13.30;;;;;;;;;;527652;28;1078;-68
2024/03/22 00:01:46;;;;;;;16.88;13.95;;;;;;;;;;528213;28;805;-68
2024/03/22 00:02:02;;;;;;;18.00;13.98;;;;;;;;;;530085;27;1023;-68
2024/03/22 00:02:17;;;;;;;16.33;12.90;;;;;;;;;;529986;27;993;-69
2024/03/22 00:02:32;;;;;;;14.20;12.20;;;;;;;;;;529964;27;924;-68
2024/03/22 00:02:48;;;;;;;14.57;12.30;;;;;;;;;;527916;28;972;-69
2024/03/22 00:03:04;;;;;;;14.40;12.17;;;;;;;;;;525633;28;1158;-68
2024/03/22 00:03:20;;;;;;;14.27;12.43;;;;;;;;;;525187;28;1070;-69
2024/03/22 00:03:35;;;;;;;16.13;13.15;;;;;;;;;;523146;28;1377;-69
2024/03/22 00:03:50;;;;;;;15.70;12.87;;;;;;;;;;523460;28;988;-68
2024/03/22 00:04:06;;;;;;;14.77;12.27;;;;;;;;;;521213;28;1160;-68
2024/03/22 00:04:21;;;;;;;13.80;11.80;;;;;;;;;;521293;28;1208;-68
2024/03/22 00:04:37;;;;;;;13.83;11.90;;;;;;;;;;521390;28;891;-69
2024/03/22 00:04:52;;;;;;;15.45;12.60;;;;;;;;;;524283;28;814;-69
2024/03/22 00:05:07;;;;;;;14.93;12.83;;;;;;;;;;525550;28;1111;-69
2024/03/22 00:05:23;;;;;;;13.77;12.32;;;;;;;;;;522830;28;1335;-69
2024/03/22 00:05:38;;;;;;;13.17;11.77;;;;;;;;;;525712;28;1055;-69
2024/03/22 00:05:53;;;;;;;13.00;11.60;;;;;;;;;;525337;28;1474;-69
2024/03/22 00:06:08;;;;;;;13.52;11.85;;;;;;;;;;525879;28;897;-69
2024/03/22 00:06:24;;;;;;;14.27;12.43;;;;;;;;;;527643;28;885;-69
2024/03/22 00:06:41;;;;;;;14.93;12.70;;;;;;;;;;527583;28;1146;-69
2024/03/22 00:06:57;;;;;;;14.82;12.32;;;;;;;;;;528026;28;1023;-69
2024/03/22 00:07:12;;;;;;;14.83;12.70;;;;;;;;;;527653;28;1007;-69
2024/03/22 00:07:27;;;;;;;14.67;12.70;;;;;;;;;;527699;28;885;-69
2024/03/22 00:07:42;;;;;;;13.98;12.10;;;;;;;;;;527949;28;909;-69
2024/03/22 00:07:58;;;;;;;13.13;11.73;;;;;;;;;;527744;28;1057;-69
2024/03/22 00:08:13;;;;;;;13.20;11.67;;;;;;;;;;527678;28;1058;-69
2024/03/22 00:08:28;;;;;;;13.50;11.60;;;;;;;;;;528165;28;854;-68
2024/03/22 00:08:43;;;;;;;13.85;11.60;;;;;;;;;;529890;27;864;-69
2024/03/22 00:08:59;;;;;;;14.40;11.30;;;;;;;;;;525677;28;1287;-68
2024/03/22 00:09:14;;;;;;;16.10;11.40;;;;;;;;;;525573;28;1062;-69
2024/03/22 00:09:30;;;;;;;14.15;11.40;;;;;;;;;;525252;28;913;-69
2024/03/22 00:09:45;;;;;;;12.67;11.33;;;;;;;;;;525781;28;896;-69
2024/03/22 00:10:00;;;;;;;13.35;11.60;;;;;;;;;;525455;28;1091;-69
2024/03/22 00:10:16;;;;;;;13.90;12.00;;;;;;;;;;525586;28;1011;-69
2024/03/22 00:10:31;;;;;;;13.10;11.63;;;;;;;;;;525702;28;810;-69
2024/03/22 00:10:46;;;;;;;12.50;11.20;;;;;;;;;;524010;28;1292;-69
2024/03/22 00:11:02;;;;;;;13.50;11.85;;;;;;;;;;527617;28;878;-69
2024/03/22 00:11:17;;;;;;;13.33;11.60;;;;;;;;;;527678;28;1054;-69
2024/03/22 00:11:32;;;;;;;13.07;11.33;;;;;;;;;;525781;28;1046;-69
2024/03/22 00:11:48;;;;;;;13.07;11.48;;;;;;;;;;525735;28;1012;-69
2024/03/22 00:12:04;;;;;;;12.30;11.00;;;;;;;;;;523553;28;1056;-68
2024/03/22 00:12:19;;;;;;;12.15;10.85;;;;;;;;;;525115;28;1099;-69
2024/03/22 00:12:34;;;;;;;12.70;11.20;;;;;;;;;;525995;28;786;-69
2024/03/22 00:12:49;;;;;;;14.20;11.55;;;;;;;;;;525486;28;1318;-69
2024/03/22 00:13:05;;;;;;;15.23;12.10;;;;;;;;;;525607;28;921;-69
2024/03/22 00:13:20;;;;;;;15.57;12.37;;;;;;;;;;525434;28;798;-69
2024/03/22 00:13:35;;;;;;;14.57;11.90;;;;;;;;;;526779;28;1297;-69
2024/03/22 00:13:51;;;;;;;14.30;12.15;;;;;;;;;;523522;28;1341;-69
2024/03/22 00:14:06;;;;;;;14.60;12.70;;;;;;;;;;527280;28;1385;-69
2024/03/22 00:14:22;;;;;;;14.60;13.00;;;;;;;;;;525410;28;956;-69
2024/03/22 00:14:37;;;;;;;15.23;13.23;;;;;;;;;;525177;28;1593;-69
2024/03/22 00:14:54;;;;;;;15.23;12.97;;;;;;;;;;526329;28;839;-69
2024/03/22 00:15:09;;;;;;;15.38;12.95;;;;;;;;;;527493;28;1019;-69
2024/03/22 00:15:24;;;;;;;15.77;13.25;;;;;;;;;;527792;28;845;-69
2024/03/22 00:15:42;;;;;;;16.47;13.33;;;;;;;;;;527828;28;842;-69
2024/03/22 00:15:57;;;;;;;15.85;12.80;;;;;;;;;;525818;28;878;-69
2024/03/22 00:16:12;;;;;;;16.43;12.50;;;;;;;;;;526638;28;991;-69
2024/03/22 00:16:28;;;;;;;16.63;12.82;;;;;;;;;;528368;27;1395;-69
2024/03/22 00:16:43;;;;;;;16.57;13.20;;;;;;;;;;528534;27;905;-69
2024/03/22 00:16:58;;;;;;;16.73;12.87;;;;;;;;;;528783;27;1298;-69
2024/03/22 00:17:14;;;;;;;16.38;13.05;;;;;;;;;;528578;27;1002;-69
2024/03/22 00:17:30;;;;;;;15.90;13.27;;;;;;;;;;526985;28;1043;-69
2024/03/22 00:17:45;;;;;;;15.45;12.98;;;;;;;;;;527629;28;1177;-69
2024/03/22 00:18:01;;;;;;;15.57;12.90;;;;;;;;;;527858;28;833;-69
2024/03/22 00:18:16;;;;;;;15.70;12.77;;;;;;;;;;527468;28;754;-69
2024/03/22 00:18:31;;;;;;;14.07;11.87;;;;;;;;;;527669;28;1307;-69
2024/03/22 00:18:46;;;;;;;13.90;11.73;;;;;;;;;;527457;28;1129;-69
2024/03/22 00:19:02;;;;;;;15.00;12.17;;;;;;;;;;525508;28;1147;-69
2024/03/22 00:19:18;;;;;;;14.60;12.43;;;;;;;;;;525235;28;964;-69
2024/03/22 00:19:34;;;;;;;14.90;12.90;;;;;;;;;;524484;28;1938;-69
2024/03/22 00:19:50;;;;;;;15.52;13.30;;;;;;;;;;527758;28;940;-69
2024/03/22 00:20:06;;;;;;;15.63;13.30;;;;;;;;;;525897;28;1700;-69
2024/03/22 00:20:21;;;;;;;14.45;12.63;;;;;;;;;;526305;27;1660;-69
2024/03/22 00:20:36;;;;;;;14.27;12.50;;;;;;;;;;528935;28;1608;-69
2024/03/22 00:20:52;;;;;;;14.77;12.68;;;;;;;;;;527856;28;1814;-69
2024/03/22 00:21:07;;;;;;;13.80;12.20;;;;;;;;;;529886;27;1094;-69
2024/03/22 00:21:23;;;;;;;14.17;12.07;;;;;;;;;;529953;27;980;-69
2024/03/22 00:21:38;;;;;;;14.30;12.25;;;;;;;;;;529944;27;1011;-69
2024/03/22 00:21:53;;;;;;;13.33;11.87;;;;;;;;;;529820;27;893;-69
2024/03/22 00:22:09;;;;;;;13.45;11.75;;;;;;;;;;529939;27;1046;-69
2024/03/22 00:22:24;;;;;;;14.23;12.30;;;;;;;;;;529545;27;1253;-69
2024/03/22 00:22:39;;;;;;;14.80;12.70;;;;;;;;;;527843;28;873;-69
2024/03/22 00:22:54;;;;;;;14.50;12.88;;;;;;;;;;527866;28;841;-69
2024/03/22 00:23:10;;;;;;;14.53;12.63;;;;;;;;;;527653;28;892;-69
2024/03/22 00:23:25;;;;;;;14.67;12.33;;;;;;;;;;527534;28;999;-69
2024/03/22 00:23:40;;;;;;;13.63;11.88;;;;;;;;;;527883;28;897;-69
2024/03/22 00:24:00;;;;;;;12.90;11.50;;;;;;;;;;525617;28;1367;-69
2024/03/22 00:24:16;;;;;;;13.13;11.65;;;;;;;;;;526991;28;1098;-69
2024/03/22 00:24:31;;;;;;;13.27;11.70;;;;;;;;;;525169;28;1136;-69
2024/03/22 00:24:46;;;;;;;13.33;11.93;;;;;;;;;;525618;28;870;-69
2024/03/22 00:25:02;;;;;;;13.00;11.60;;;;;;;;;;525669;28;1027;-69
2024/03/22 00:25:17;;;;;;;13.63;11.87;;;;;;;;;;525341;28;1066;-70
2024/03/22 00:25:32;;;;;;;13.90;12.13;;;;;;;;;;523595;28;905;-69
2024/03/22 00:25:47;;;;;;;13.55;12.10;;;;;;;;;;523812;28;908;-69
2024/03/22 00:26:03;;;;;;;13.67;12.20;;;;;;;;;;523291;28;1262;-69
2024/03/22 00:26:18;;;;;;;13.67;11.80;;;;;;;;;;525140;28;1343;-69
2024/03/22 00:26:33;;;;;;;13.83;11.90;;;;;;;;;;525703;28;901;-69
2024/03/22 00:26:48;;;;;;;13.95;12.20;;;;;;;;;;525811;28;774;-69
2024/03/22 00:27:04;;;;;;;15.57;12.30;;;;;;;;;;526381;28;1483;-69
2024/03/22 00:27:19;;;;;;;16.67;12.93;;;;;;;;;;525517;28;1056;-69
2024/03/22 00:27:34;;;;;;;14.55;12.30;;;;;;;;;;525656;28;925;-69
2024/03/22 00:27:50;;;;;;;12.70;11.27;;;;;;;;;;525673;28;1091;-69
2024/03/22 00:28:05;;;;;;;12.87;11.23;;;;;;;;;;527604;28;1358;-69
2024/03/22 00:28:20;;;;;;;12.83;11.10;;;;;;;;;;527631;27;1051;-69
2024/03/22 00:28:35;;;;;;;13.63;11.75;;;;;;;;;;527851;28;959;-69
2024/03/22 00:28:51;;;;;;;13.67;11.83;;;;;;;;;;527793;28;940;-69
2024/03/22 00:29:06;;;;;;;12.33;11.00;;;;;;;;;;527808;27;1076;-69
2024/03/22 00:29:21;;;;;;;11.98;10.55;;;;;;;;;;529001;27;763;-69
2024/03/22 00:29:37;;;;;;;12.23;10.60;;;;;;;;;;526597;28;924;-69
2024/03/22 00:29:52;;;;;;;13.20;10.97;;;;;;;;;;525786;28;1087;-69
2024/03/22 00:30:08;;;;;;;13.47;11.40;;;;;;;;;;525494;28;1163;-69
2024/03/22 00:30:23;;;;;;;13.20;11.55;;;;;;;;;;525513;28;806;-69
2024/03/22 00:30:38;;;;;;;13.20;11.67;;;;;;;;;;525668;28;1009;-71
2024/03/22 00:30:53;;;;;;;13.05;11.65;;;;;;;;;;525724;28;1051;-69
2024/03/22 00:31:09;;;;;;;12.50;11.20;;;;;;;;;;525508;28;1078;-69
2024/03/22 00:31:25;;;;;;;13.68;11.50;;;;;;;;;;525649;28;873;-69
2024/03/22 00:31:40;;;;;;;13.43;11.63;;;;;;;;;;525822;28;869;-69
2024/03/22 00:31:55;;;;;;;12.17;10.87;;;;;;;;;;528176;28;1059;-69
2024/03/22 00:32:11;;;;;;;11.83;10.50;;;;;;;;;;529970;27;1050;-68
2024/03/22 00:32:26;;;;;;;12.03;10.77;;;;;;;;;;527644;28;1123;-69
2024/03/22 00:32:44;;;;;;;13.10;11.70;;;;;;;;;;525577;28;977;-68
2024/03/22 00:32:59;;;;;;;14.20;12.15;;;;;;;;;;525591;28;1123;-68
2024/03/22 00:33:14;;;;;;;14.30;12.10;;;;;;;;;;525552;28;1093;-68
2024/03/22 00:33:30;;;;;;;13.60;12.10;;;;;;;;;;523330;28;1447;-68
2024/03/22 00:33:45;;;;;;;14.93;12.30;;;;;;;;;;521224;28;1353;-69
2024/03/22 00:34:00;;;;;;;15.60;12.50;;;;;;;;;;521543;28;807;-69
2024/03/22 00:34:16;;;;;;;14.77;12.43;;;;;;;;;;521998;28;1064;-69
2024/03/22 00:34:31;;;;;;;14.77;12.30;;;;;;;;;;523500;28;865;-69
2024/03/22 00:34:46;;;;;;;14.15;12.18;;;;;;;;;;525704;28;941;-69
2024/03/22 00:35:02;;;;;;;14.07;12.27;;;;;;;;;;525634;28;771;-69
2024/03/22 00:35:17;;;;;;;13.90;12.00;;;;;;;;;;523612;28;1136;-69
2024/03/22 00:35:32;;;;;;;13.18;11.77;;;;;;;;;;523619;28;1059;-69
2024/03/22 00:35:48;;;;;;;13.57;11.57;;;;;;;;;;521493;28;1174;-69
2024/03/22 00:36:03;;;;;;;13.73;11.47;;;;;;;;;;521423;28;846;-69
2024/03/22 00:36:19;;;;;;;13.93;12.40;;;;;;;;;;521068;28;1022;-69
2024/03/22 00:36:34;;;;;;;14.80;13.03;;;;;;;;;;521519;28;988;-69
2024/03/22 00:36:51;;;;;;;15.20;12.63;;;;;;;;;;521613;28;818;-69
2024/03/22 00:37:06;;;;;;;14.90;12.25;;;;;;;;;;521678;28;1007;-69
2024/03/22 00:37:22;;;;;;;14.02;11.93;;;;;;;;;;523983;28;853;-68
2024/03/22 00:37:37;;;;;;;13.53;11.77;;;;;;;;;;526119;28;905;-69
2024/03/22 00:37:52;;;;;;;13.38;11.73;;;;;;;;;;527637;28;919;-69
2024/03/22 00:38:07;;;;;;;13.57;11.83;;;;;;;;;;526100;28;1155;-69
2024/03/22 00:38:23;;;;;;;13.13;11.43;;;;;;;;;;529004;27;805;-69
2024/03/22 00:38:38;;;;;;;13.17;11.33;;;;;;;;;;527789;28;983;-68
2024/03/22 00:38:53;;;;;;;14.43;11.82;;;;;;;;;;527605;28;1133;-69
2024/03/22 00:39:09;;;;;;;14.27;11.90;;;;;;;;;;527949;28;1401;-69
2024/03/22 00:39:24;;;;;;;13.80;12.20;;;;;;;;;;527479;28;903;-69
2024/03/22 00:39:39;;;;;;;14.38;12.60;;;;;;;;;;527594;28;1949;-68
2024/03/22 00:39:55;;;;;;;14.40;12.50;;;;;;;;;;527987;27;869;-69
2024/03/22 00:40:10;;;;;;;15.13;12.17;;;;;;;;;;529903;27;1054;-69
2024/03/22 00:40:26;;;;;;;15.25;11.85;;;;;;;;;;530017;27;995;-69
2024/03/22 00:40:41;;;;;;;14.77;12.20;;;;;;;;;;527738;28;1150;-69
2024/03/22 00:40:57;;;;;;;15.02;12.55;;;;;;;;;;527783;28;980;-69
2024/03/22 00:41:12;;;;;;;14.30;12.40;;;;;;;;;;527515;28;1147;-69
2024/03/22 00:41:27;;;;;;;13.83;12.13;;;;;;;;;;525614;28;1191;-69
2024/03/22 00:41:42;;;;;;;14.00;12.23;;;;;;;;;;524852;28;798;-69
2024/03/22 00:41:58;;;;;;;14.17;12.40;;;;;;;;;;523383;28;1233;-69
2024/03/22 00:42:13;;;;;;;15.03;12.63;;;;;;;;;;523523;28;1151;-69
2024/03/22 00:42:28;;;;;;;14.87;12.53;;;;;;;;;;523663;28;1039;-69
2024/03/22 00:42:43;;;;;;;14.27;12.40;;;;;;;;;;525707;28;1118;-69
2024/03/22 00:42:59;;;;;;;16.53;12.90;;;;;;;;;;525551;28;908;-69
2024/03/22 00:43:14;;;;;;;17.07;13.10;;;;;;;;;;525556;28;1256;-69
2024/03/22 00:43:29;;;;;;;16.40;13.15;;;;;;;;;;525519;28;1246;-69
2024/03/22 00:43:45;;;;;;;16.27;13.43;;;;;;;;;;525891;28;880;-69
2024/03/22 00:44:00;;;;;;;14.80;12.83;;;;;;;;;;525681;28;810;-69
2024/03/22 00:44:16;;;;;;;14.00;12.30;;;;;;;;;;524755;28;1135;-69
2024/03/22 00:44:31;;;;;;;14.70;12.37;;;;;;;;;;522726;28;1175;-69
2024/03/22 00:44:46;;;;;;;14.93;12.33;;;;;;;;;;523603;28;992;-68
2024/03/22 00:45:02;;;;;;;16.40;13.10;;;;;;;;;;523650;28;885;-69
2024/03/22 00:45:17;;;;;;;16.43;13.43;;;;;;;;;;525712;28;1003;-69
2024/03/22 00:45:32;;;;;;;15.20;12.90;;;;;;;;;;525689;28;901;-69
2024/03/22 00:45:48;;;;;;;14.50;12.43;;;;;;;;;;523608;28;1277;-69
2024/03/22 00:46:03;;;;;;;15.13;12.67;;;;;;;;;;525116;28;1229;-69
2024/03/22 00:46:18;;;;;;;16.17;12.80;;;;;;;;;;526985;28;1078;-69
2024/03/22 00:46:35;;;;;;;14.70;12.00;;;;;;;;;;527759;28;944;-69
2024/03/22 00:46:50;;;;;;;13.20;11.45;;;;;;;;;;528267;27;900;-69
2024/03/22 00:47:06;;;;;;;13.40;11.90;;;;;;;;;;529425;27;984;-69
2024/03/22 00:47:21;;;;;;;13.93;12.43;;;;;;;;;;527727;28;877;-69
2024/03/22 00:47:36;;;;;;;14.00;12.50;;;;;;;;;;528230;27;842;-69
2024/03/22 00:47:51;;;;;;;14.00;12.32;;;;;;;;;;530034;27;916;-69
2024/03/22 00:48:07;;;;;;;14.90;12.47;;;;;;;;;;529925;27;1145;-69
2024/03/22 00:48:22;;;;;;;15.88;12.68;;;;;;;;;;529835;27;932;-69
2024/03/22 00:48:38;;;;;;;15.27;12.60;;;;;;;;;;530117;27;857;-69
2024/03/22 00:48:53;;;;;;;14.60;12.10;;;;;;;;;;529952;27;988;-68
2024/03/22 00:49:08;;;;;;;15.23;11.73;;;;;;;;;;529776;27;1070;-69
2024/03/22 00:49:23;;;;;;;15.30;12.02;;;;;;;;;;529645;27;1023;-68
2024/03/22 00:49:39;;;;;;;14.60;12.00;;;;;;;;;;529971;27;908;-69
2024/03/22 00:49:54;;;;;;;14.07;12.27;;;;;;;;;;530008;27;1019;-69
2024/03/22 00:50:09;;;;;;;14.32;12.45;;;;;;;;;;530038;27;1070;-69
2024/03/22 00:50:25;;;;;;;14.37;12.30;;;;;;;;;;529807;27;1019;-69
2024/03/22 00:50:40;;;;;;;15.23;12.37;;;;;;;;;;530042;27;909;-69
2024/03/22 00:50:55;;;;;;;15.57;12.47;;;;;;;;;;527731;28;1291;-69
2024/03/22 00:51:10;;;;;;;15.48;12.35;;;;;;;;;;525428;28;1267;-69
2024/03/22 00:51:26;;;;;;;15.97;12.10;;;;;;;;;;523383;28;1276;-69
2024/03/22 00:51:44;;;;;;;16.05;12.20;;;;;;;;;;523720;28;842;-69
2024/03/22 00:51:59;;;;;;;15.55;12.10;;;;;;;;;;523518;28;932;-69
2024/03/22 00:52:14;;;;;;;14.37;12.07;;;;;;;;;;523734;28;1071;-69
2024/03/22 00:52:29;;;;;;;14.02;12.43;;;;;;;;;;523185;28;845;-69
2024/03/22 00:52:45;;;;;;;14.53;12.73;;;;;;;;;;524111;28;1300;-69
2024/03/22 00:53:02;;;;;;;15.23;12.67;;;;;;;;;;525742;28;802;-70
2024/03/22 00:53:18;;;;;;;16.17;13.15;;;;;;;;;;527799;28;1054;-69
2024/03/22 00:53:33;;;;;;;15.70;12.93;;;;;;;;;;527841;28;912;-69
2024/03/22 00:53:48;;;;;;;15.40;12.53;;;;;;;;;;527226;28;905;-69
2024/03/22 00:54:04;;;;;;;15.48;12.27;;;;;;;;;;529378;27;952;-69
2024/03/22 00:54:19;;;;;;;15.77;12.47;;;;;;;;;;525575;28;1278;-69
2024/03/22 00:54:34;;;;;;;15.37;12.60;;;;;;;;;;525577;28;913;-69
2024/03/22 00:54:49;;;;;;;14.65;12.40;;;;;;;;;;527819;28;841;-69
2024/03/22 00:55:05;;;;;;;16.03;12.67;;;;;;;;;;525571;28;1296;-69
2024/03/22 00:55:20;;;;;;;17.50;13.00;;;;;;;;;;525421;28;1129;-69
2024/03/22 00:55:36;;;;;;;17.08;13.60;;;;;;;;;;525587;28;1071;-69
2024/03/22 00:55:51;;;;;;;16.93;13.77;;;;;;;;;;525588;28;972;-69
2024/03/22 00:56:06;;;;;;;16.23;13.27;;;;;;;;;;525737;28;1111;-69
2024/03/22 00:56:22;;;;;;;15.45;13.10;;;;;;;;;;526135;28;1301;-69
2024/03/22 00:56:37;;;;;;;15.77;13.20;;;;;;;;;;527740;28;903;-69
2024/03/22 00:56:52;;;;;;;15.45;12.95;;;;;;;;;;527757;28;968;-69
2024/03/22 00:57:08;;;;;;;15.07;12.67;;;;;;;;;;527400;28;1065;-69
2024/03/22 00:57:23;;;;;;;16.37;13.07;;;;;;;;;;525779;28;822;-70
2024/03/22 00:57:38;;;;;;;16.37;13.07;;;;;;;;;;527851;28;813;-69
2024/03/22 00:57:54;;;;;;;15.45;13.00;;;;;;;;;;527635;28;838;-69
2024/03/22 00:58:09;;;;;;;15.43;12.87;;;;;;;;;;527822;28;1015;-69
2024/03/22 00:58:26;;;;;;;15.53;12.83;;;;;;;;;;529947;27;1074;-69
2024/03/22 00:58:41;;;;;;;16.23;13.40;;;;;;;;;;527535;28;1647;-69
2024/03/22 00:58:57;;;;;;;16.13;13.17;;;;;;;;;;527690;28;992;-69
2024/03/22 00:59:12;;;;;;;15.87;13.10;;;;;;;;;;525453;28;1258;-69
2024/03/22 00:59:27;;;;;;;16.13;13.17;;;;;;;;;;525044;28;1992;-69
2024/03/22 00:59:42;;;;;;;15.85;13.02;;;;;;;;;;525569;28;949;-69
2024/03/22 00:59:58;;;;;;;15.87;13.10;;;;;;;;;;525733;28;889;-69
2024/03/22 01:00:14;;;;;;;16.70;13.37;;;;;;;;;;525627;28;846;-69
2024/03/22 01:00:29;;;;;;;16.88;13.55;;;;;;;;;;525575;28;1079;-69
2024/03/22 01:00:45;;;;;;;15.67;13.00;;;;;;;;;;525552;28;865;-69
2024/03/22 01:01:01;;;;;;;14.45;12.45;;;;;;;;;;526047;28;1510;-69
2024/03/22 01:01:16;;;;;;;14.20;12.30;;;;;;;;;;527688;28;818;-69
2024/03/22 01:01:31;;;;;;;15.50;12.90;;;;;;;;;;527696;28;855;-69
2024/03/22 01:01:47;;;;;;;16.00;13.20;;;;;;;;;;527803;28;806;-69
2024/03/22 01:02:03;;;;;;;17.93;13.50;;;;;;;;;;527675;28;1243;-69
2024/03/22 01:02:18;;;;;;;16.83;13.25;;;;;;;;;;527613;28;1054;-69
2024/03/22 01:02:34;;;;;;;15.97;13.27;;;;;;;;;;527921;28;829;-68
2024/03/22 01:02:50;;;;;;;16.90;13.40;;;;;;;;;;527688;28;806;-69
2024/03/22 01:03:05;;;;;;;16.33;13.18;;;;;;;;;;527732;28;1011;-69
2024/03/22 01:03:21;;;;;;;16.27;13.52;;;;;;;;;;527637;28;869;-69
2024/03/22 01:03:37;;;;;;;16.85;14.07;;;;;;;;;;527716;28;1172;-69
2024/03/22 01:03:52;;;;;;;17.07;14.10;;;;;;;;;;528159;28;1000;-69
2024/03/22 01:04:09;;;;;;;17.47;13.80;;;;;;;;;;530000;27;1050;-69
2024/03/22 01:04:24;;;;;;;17.75;13.80;;;;;;;;;;529666;27;963;-69
2024/03/22 01:04:39;;;;;;;17.50;13.70;;;;;;;;;;529931;28;759;-69
2024/03/22 01:04:55;;;;;;;17.13;13.55;;;;;;;;;;529760;27;936;-69
2024/03/22 01:05:10;;;;;;;16.47;13.80;;;;;;;;;;529705;27;1016;-69
2024/03/22 01:05:26;;;;;;;17.33;14.30;;;;;;;;;;529316;27;1060;-69
2024/03/22 01:05:42;;;;;;;18.07;14.60;;;;;;;;;;527656;28;1299;-69
2024/03/22 01:05:57;;;;;;;17.48;14.07;;;;;;;;;;526986;28;915;-69
2024/03/22 01:06:13;;;;;;;17.30;13.50;;;;;;;;;;525431;28;1317;-69
2024/03/22 01:06:28;;;;;;;16.97;13.37;;;;;;;;;;525536;28;862;-69
2024/03/22 01:06:43;;;;;;;15.83;13.60;;;;;;;;;;525801;28;1185;-69
2024/03/22 01:06:59;;;;;;;15.68;13.35;;;;;;;;;;527009;28;1342;-69
2024/03/22 01:07:14;;;;;;;15.77;12.87;;;;;;;;;;526086;28;1371;-69
2024/03/22 01:07:29;;;;;;;15.50;13.13;;;;;;;;;;523667;28;1155;-69
2024/03/22 01:07:44;;;;;;;15.77;13.43;;;;;;;;;;525566;28;814;-69
2024/03/22 01:08:00;;;;;;;16.43;13.73;;;;;;;;;;523589;28;1333;-69
2024/03/22 01:08:15;;;;;;;17.00;13.93;;;;;;;;;;523314;28;1343;-69
2024/03/22 01:08:30;;;;;;;17.87;13.83;;;;;;;;;;523331;28;1159;-69
2024/03/22 01:08:45;;;;;;;17.65;13.23;;;;;;;;;;522752;28;1226;-69
2024/03/22 01:09:03;;;;;;;15.73;12.87;;;;;;;;;;521535;28;854;-69
2024/03/22 01:09:19;;;;;;;15.05;12.93;;;;;;;;;;521457;28;1059;-69
2024/03/22 01:09:34;;;;;;;14.45;12.40;;;;;;;;;;523259;28;916;-69
2024/03/22 01:09:50;;;;;;;13.77;12.17;;;;;;;;;;523502;28;1155;-69
2024/03/22 01:10:05;;;;;;;13.80;12.30;;;;;;;;;;524164;28;1036;-69
2024/03/22 01:10:20;;;;;;;15.00;12.73;;;;;;;;;;525610;28;941;-69
2024/03/22 01:10:36;;;;;;;14.83;12.27;;;;;;;;;;524082;28;1170;-69
2024/03/22 01:10:51;;;;;;;14.30;12.20;;;;;;;;;;525742;28;1016;-69
2024/03/22 01:11:06;;;;;;;14.07;12.25;;;;;;;;;;525353;28;1003;-69
2024/03/22 01:11:22;;;;;;;13.37;11.70;;;;;;;;;;525377;28;1032;-70
2024/03/22 01:11:37;;;;;;;14.27;12.10;;;;;;;;;;525774;28;984;-69
2024/03/22 01:11:52;;;;;;;16.67;13.30;;;;;;;;;;527740;28;845;-69
2024/03/22 01:12:07;;;;;;;16.85;13.65;;;;;;;;;;525532;28;1123;-69
2024/03/22 01:12:23;;;;;;;16.20;13.87;;;;;;;;;;524923;28;1191;-69
2024/03/22 01:12:39;;;;;;;19.40;14.30;;;;;;;;;;525660;28;987;-69
2024/03/22 01:12:54;;;;;;;18.88;13.82;;;;;;;;;;525634;28;850;-68
2024/03/22 01:13:09;;;;;;;15.75;13.13;;;;;;;;;;521760;28;1195;-69
2024/03/22 01:13:25;;;;;;;14.60;12.53;;;;;;;;;;523377;28;1013;-69
2024/03/22 01:13:40;;;;;;;14.13;12.23;;;;;;;;;;521327;28;1871;-69
2024/03/22 01:13:55;;;;;;;15.83;12.43;;;;;;;;;;521739;28;2289;-69
2024/03/22 01:14:10;;;;;;;16.85;12.95;;;;;;;;;;524563;28;2101;-69
2024/03/22 01:14:26;;;;;;;17.10;13.33;;;;;;;;;;526386;28;834;-69
2024/03/22 01:14:41;;;;;;;16.40;13.23;;;;;;;;;;527543;28;842;-69
2024/03/22 01:14:57;;;;;;;15.98;13.45;;;;;;;;;;525714;28;834;-69
2024/03/22 01:15:12;;;;;;;16.80;13.60;;;;;;;;;;528735;28;779;-69
2024/03/22 01:15:27;;;;;;;16.93;13.57;;;;;;;;;;529159;27;905;-69
2024/03/22 01:15:43;;;;;;;16.70;13.80;;;;;;;;;;530086;28;905;-69
2024/03/22 01:15:58;;;;;;;17.33;13.67;;;;;;;;;;530024;28;1004;-69
2024/03/22 01:16:13;;;;;;;17.50;13.47;;;;;;;;;;528820;27;1526;-69
2024/03/22 01:16:28;;;;;;;17.15;13.48;;;;;;;;;;528576;27;1196;-69
2024/03/22 01:16:44;;;;;;;17.00;13.40;;;;;;;;;;530918;27;853;-68
2024/03/22 01:16:59;;;;;;;16.10;13.23;;;;;;;;;;530460;27;1014;-69
2024/03/22 01:17:14;;;;;;;16.70;13.40;;;;;;;;;;529812;27;1004;-69
2024/03/22 01:17:29;;;;;;;16.42;13.07;;;;;;;;;;527393;28;1361;-69
2024/03/22 01:17:45;;;;;;;15.27;13.00;;;;;;;;;;525556;28;1280;-69
2024/03/22 01:18:00;;;;;;;15.00;13.10;;;;;;;;;;523456;28;898;-68
2024/03/22 01:18:15;;;;;;;15.87;13.13;;;;;;;;;;522640;28;873;-69
2024/03/22 01:18:31;;;;;;;15.83;13.00;;;;;;;;;;523416;28;1052;-69
2024/03/22 01:18:46;;;;;;;15.67;12.77;;;;;;;;;;523477;28;799;-69
2024/03/22 01:19:01;;;;;;;16.50;12.87;;;;;;;;;;523436;28;1077;-69
2024/03/22 01:19:16;;;;;;;15.75;12.70;;;;;;;;;;521517;28;1093;-69
2024/03/22 01:19:32;;;;;;;15.60;12.73;;;;;;;;;;522985;28;1989;-69
2024/03/22 01:19:48;;;;;;;14.90;12.68;;;;;;;;;;526042;28;1004;-69
2024/03/22 01:20:04;;;;;;;14.68;12.48;;;;;;;;;;527624;28;870;-69
2024/03/22 01:20:20;;;;;;;15.85;12.55;;;;;;;;;;525296;28;1247;-69
2024/03/22 01:20:35;;;;;;;16.33;12.57;;;;;;;;;;525562;28;799;-69
2024/03/22 01:20:50;;;;;;;16.88;12.85;;;;;;;;;;525701;28;842;-69
2024/03/22 01:21:06;;;;;;;16.97;12.83;;;;;;;;;;525905;28;1157;-69
2024/03/22 01:21:24;;;;;;;17.02;12.93;;;;;;;;;;526253;28;944;-69
2024/03/22 01:21:40;;;;;;;17.42;13.70;;;;;;;;;;527606;28;882;-69
2024/03/22 01:21:55;;;;;;;16.57;13.40;;;;;;;;;;527838;28;861;-69
2024/03/22 01:22:10;;;;;;;16.30;13.15;;;;;;;;;;526064;28;1294;-69
2024/03/22 01:22:26;;;;;;;17.43;13.57;;;;;;;;;;527635;28;1019;-69
2024/03/22 01:22:41;;;;;;;16.07;13.13;;;;;;;;;;527694;28;857;-69
2024/03/22 01:22:56;;;;;;;15.00;12.95;;;;;;;;;;527877;28;900;-69
2024/03/22 01:23:11;;;;;;;14.87;12.70;;;;;;;;;;527400;28;1022;-69
2024/03/22 01:23:27;;;;;;;14.17;12.23;;;;;;;;;;529174;28;881;-69
2024/03/22 01:23:42;;;;;;;14.00;12.20;;;;;;;;;;529782;28;1110;-69
2024/03/22 01:23:57;;;;;;;14.47;12.23;;;;;;;;;;529932;27;995;-69
2024/03/22 01:24:12;;;;;;;14.40;12.45;;;;;;;;;;530622;27;2027;-69
2024/03/22 01:24:28;;;;;;;14.17;12.37;;;;;;;;;;525918;28;2121;-69
2024/03/22 01:24:43;;;;;;;14.20;11.73;;;;;;;;;;525303;28;2163;-69
2024/03/22 01:24:58;;;;;;;13.30;11.27;;;;;;;;;;525601;28;842;-69
2024/03/22 01:25:14;;;;;;;13.23;11.47;;;;;;;;;;526708;28;1201;-68
2024/03/22 01:25:29;;;;;;;13.53;11.43;;;;;;;;;;525562;28;1934;-69
2024/03/22 01:25:45;;;;;;;13.38;11.55;;;;;;;;;;525585;28;1055;-69
2024/03/22 01:26:00;;;;;;;13.80;11.90;;;;;;;;;;525656;28;806;-69
2024/03/22 01:26:15;;;;;;;13.67;11.63;;;;;;;;;;525876;28;2546;-69
2024/03/22 01:26:30;;;;;;;13.47;11.57;;;;;;;;;;529533;27;2214;-73
2024/03/22 01:26:46;;;;;;;14.83;12.57;;;;;;;;;;527718;28;1200;-73
2024/03/22 01:27:01;;;;;;;15.13;12.70;;;;;;;;;;527513;28;980;-73
2024/03/22 01:27:16;;;;;;;14.85;12.18;;;;;;;;;;526932;28;1107;-73
2024/03/22 01:27:31;;;;;;;15.63;12.60;;;;;;;;;;527664;28;921;-73
2024/03/22 01:27:47;;;;;;;16.07;13.20;;;;;;;;;;527689;28;1059;-73
2024/03/22 01:28:04;;;;;;;17.60;13.77;;;;;;;;;;527486;28;870;-73
2024/03/22 01:28:19;;;;;;;17.95;13.80;;;;;;;;;;525384;28;1426;-73
2024/03/22 01:28:34;;;;;;;17.77;13.73;;;;;;;;;;525523;28;881;-73
2024/03/22 01:28:49;;;;;;;18.47;13.80;;;;;;;;;;525637;28;822;-73
2024/03/22 01:29:05;;;;;;;17.27;13.50;;;;;;;;;;525619;28;889;-73
2024/03/22 01:29:20;;;;;;;16.43;13.67;;;;;;;;;;525431;28;1202;-73
2024/03/22 01:29:36;;;;;;;17.35;13.57;;;;;;;;;;523584;28;1317;-73
2024/03/22 01:29:51;;;;;;;16.77;13.43;;;;;;;;;;525734;28;881;-73
2024/03/22 01:30:06;;;;;;;15.90;13.17;;;;;;;;;;525609;28;1086;-73
2024/03/22 01:30:22;;;;;;;16.13;13.13;;;;;;;;;;527721;28;1181;-73
2024/03/22 01:30:37;;;;;;;17.75;13.75;;;;;;;;;;525584;28;1456;-73
2024/03/22 01:30:53;;;;;;;16.90;13.20;;;;;;;;;;525594;28;965;-73
2024/03/22 01:31:08;;;;;;;14.67;12.67;;;;;;;;;;525101;28;1274;-73
2024/03/22 01:31:23;;;;;;;14.93;12.77;;;;;;;;;;525679;28;1280;-73
2024/03/22 01:31:38;;;;;;;14.40;12.50;;;;;;;;;;525692;28;830;-73
2024/03/22 01:31:54;;;;;;;13.97;11.97;;;;;;;;;;525610;28;810;-73
2024/03/22 01:32:09;;;;;;;15.23;12.63;;;;;;;;;;525310;28;1159;-73
2024/03/22 01:32:24;;;;;;;15.40;13.07;;;;;;;;;;525558;28;952;-73
2024/03/22 01:32:39;;;;;;;15.93;13.20;;;;;;;;;;525726;28;822;-73
2024/03/22 01:32:55;;;;;;;15.30;12.67;;;;;;;;;;525576;28;837;-73
2024/03/22 01:33:11;;;;;;;13.60;11.75;;;;;;;;;;526256;28;990;-74